Terminal Aerodrome Forecast
Issued by NWS Des Moines, IA

Home | Current Version | Previous Version | Text Only | Print | Product List | Glossary On
Versions: 1 2 3 4 5 6 7 8 9 10 11 12 13 14 15 16 17 18 19 20 21 22
000
FTUS43 KDMX 241140
TAFDSM
TAF
KDSM 241140Z 2412/2512 19006KT 1/4SM FG VV001
     FM241600 17008KT 1SM BR BKN002
     FM241700 18010KT 5SM BR BKN006
     FM241800 23012KT P6SM SCT018 SCT200
     FM250100 23006KT P6SM SCT200
     FM250500 30005KT P6SM SCT250=

USA.gov is the U.S. government's official web portal to all federal, state and local government web resources and services.